Scout — WCZ2046 — position and weather

sailwx.info

Track history (hours):
 
Tides and Currents Weather Stations Pressure Air Temp Water Temp Dewpoint Dewpoint Depression Visibility Wind Speed Wind Dir Waves Ship Positions

Scout

Owner: Crowley Marine Services, SEATTLE, WA. More information available from US FCC via Universal Licensing System and Coast Guard Vessel Documentation Center.

Last reported at 2016-Dec-07 15:34 UTC. Time now 2016-Dec-07 16:26 UTC.
Position N 32°42' W 117°09'.

; draft 5.6 m.

Type: Tug. MMSI: 366764730.

Date/timePositionNaut miles runAvg speedWind from/ knotsBaromVisibWave heightAir tempDewpointWater temp
2016-Dec-07 15:34N 32°42' W 117°09'0 0.0
2016-Dec-07 14:33N 32°42' W 117°09'0 0.0
2016-Dec-07 13:33N 32°42' W 117°09'0 0.0
2016-Dec-07 12:33N 32°42' W 117°09'0 0.0
2016-Dec-07 11:33N 32°42' W 117°09'0 0.1
2016-Dec-07 10:33N 32°42' W 117°09'0 0.1
2016-Dec-07 09:33N 32°42' W 117°09'0 0.0
2016-Dec-07 08:33N 32°42' W 117°09'0 0.0
2016-Dec-07 07:33N 32°42' W 117°09'0 0.0
2016-Dec-07 06:33N 32°42' W 117°09'0 0.0
2016-Dec-07 05:33N 32°42' W 117°09'0 0.0
2016-Dec-07 04:33N 32°42' W 117°09'0 0.0
2016-Dec-07 03:33N 32°42' W 117°09'0 0.0
2016-Dec-07 02:33N 32°42' W 117°09'0 0.0
2016-Dec-07 01:33N 32°42' W 117°09'3 2.6
2016-Dec-07 00:33N 32°39' W 117°07'3 2.6
2016-Dec-06 23:32N 32°42' W 117°09'0 0.0
2016-Dec-06 22:33N 32°42' W 117°09'0 0.1
2016-Dec-06 21:33N 32°42' W 117°09'0 0.1
2016-Dec-06 20:32N 32°42' W 117°09'0 0.0
2016-Dec-06 18:33N 32°42' W 117°09'0 0.1
2016-Dec-06 17:33N 32°42' W 117°09'3 2.5
2016-Dec-06 16:33N 32°43' W 117°12'0 0.0
2016-Dec-06 15:33N 32°43' W 117°12'2 2.5
2016-Dec-06 14:33N 32°42' W 117°09'0 0.1
2016-Dec-06 13:33N 32°42' W 117°09'3 2.1
2016-Dec-06 12:15N 32°39' W 117°07'3 4.0
2016-Dec-06 11:33N 32°42' W 117°09'0 0.0
2016-Dec-06 10:33N 32°42' W 117°09'0 0.0
2016-Dec-06 09:33N 32°42' W 117°09'0 0.1
2016-Dec-06 08:33N 32°42' W 117°09'0 0.1
2016-Dec-06 07:33N 32°42' W 117°09'0 0.0
2016-Dec-06 06:33N 32°42' W 117°09'0 0.0
2016-Dec-06 05:33N 32°42' W 117°09'0 0.0
2016-Dec-06 04:33N 32°42' W 117°09'0 0.0
2016-Dec-06 03:33N 32°42' W 117°09'0 0.0
2016-Dec-06 02:33N 32°42' W 117°09'1 0.6
2016-Dec-06 01:34N 32°41' W 117°09'1 0.6
2016-Dec-06 00:33N 32°42' W 117°09'0 0.0
2016-Dec-05 23:33N 32°42' W 117°09'0 0.0
2016-Dec-05 22:33N 32°42' W 117°09'0 0.0
2016-Dec-05 21:33N 32°42' W 117°09'0 0.4
2016-Dec-05 20:33N 32°42' W 117°10'0 0.4
2016-Dec-05 19:33N 32°42' W 117°09'0 0.0
2016-Dec-05 18:33N 32°42' W 117°09'0 0.0
2016-Dec-05 17:33N 32°42' W 117°09'0 0.1
2016-Dec-05 16:33N 32°42' W 117°09'0 0.0
2016-Dec-05 15:33N 32°42' W 117°09'0 0.0
2016-Dec-05 14:33N 32°42' W 117°09'0 0.0
2016-Dec-05 13:33N 32°42' W 117°09'0 0.0
2016-Dec-05 12:33N 32°42' W 117°09'0 0.0
2016-Dec-05 11:33N 32°42' W 117°09'0 0.0
2016-Dec-05 10:33N 32°42' W 117°09'0 0.0
2016-Dec-05 09:33N 32°42' W 117°09'0 0.0
2016-Dec-05 08:33N 32°42' W 117°09'0 0.0
2016-Dec-05 07:33N 32°42' W 117°09'0 0.1
2016-Dec-05 06:33N 32°42' W 117°09'0 0.0
2016-Dec-05 05:32N 32°42' W 117°09'0 0.0
2016-Dec-05 04:33N 32°42' W 117°09'0 0.0
2016-Dec-05 03:33N 32°42' W 117°09'0 0.0
2016-Dec-05 02:33N 32°42' W 117°09'0 0.0
2016-Dec-05 01:33N 32°42' W 117°09'0 0.0
2016-Dec-05 00:32N 32°42' W 117°09'0 0.0
2016-Dec-04 23:33N 32°42' W 117°09'0 0.0
2016-Dec-04 22:33N 32°42' W 117°09'2 1.6
2016-Dec-04 21:33N 32°41' W 117°08'1 1.3
2016-Dec-04 20:33N 32°39' W 117°07'3 2.8
2016-Dec-04 19:33N 32°42' W 117°09'0 0.0
2016-Dec-04 18:33N 32°42' W 117°09'0 0.0
2016-Dec-04 17:33N 32°42' W 117°09'0 0.1
2016-Dec-04 16:33N 32°42' W 117°09'0 0.0
2016-Dec-04 15:33N 32°42' W 117°09'3 2.4
2016-Dec-04 14:09N 32°39' W 117°07'3 4.5
2016-Dec-04 13:33N 32°41' W 117°09'1 1.1
2016-Dec-04 12:33N 32°42' W 117°10'0 0.4
2016-Dec-04 11:33N 32°42' W 117°09'0 0.1
2016-Dec-04 10:33N 32°42' W 117°09'0 0.1
2016-Dec-04 09:33N 32°42' W 117°09'0 0.1
2016-Dec-04 08:33N 32°42' W 117°09'0 0.1
2016-Dec-04 07:33N 32°42' W 117°09'0 0.0
2016-Dec-04 06:33N 32°42' W 117°09'0 0.0
2016-Dec-04 05:33N 32°42' W 117°09'0 0.0
2016-Dec-04 04:33N 32°42' W 117°09'0 0.0
2016-Dec-04 03:30N 32°42' W 117°09'0 0.0
2016-Dec-04 02:33N 32°42' W 117°09'0 0.0
2016-Dec-04 01:33N 32°42' W 117°09'0 0.0
2016-Dec-04 00:33N 32°42' W 117°09'0 0.1
2016-Dec-03 23:33N 32°42' W 117°09'0 0.1
2016-Dec-03 22:33N 32°42' W 117°09'0 0.0
2016-Dec-03 21:33N 32°42' W 117°09'0 0.0
2016-Dec-03 20:33N 32°42' W 117°09'0 0.0
2016-Dec-03 19:33N 32°42' W 117°09'0 0.0
2016-Dec-03 18:27N 32°42' W 117°09'0 0.0
2016-Dec-03 17:33N 32°42' W 117°09'0 0.0
2016-Dec-03 16:33N 32°42' W 117°09'0 0.0
2016-Dec-03 15:33N 32°42' W 117°09'0 0.0
2016-Dec-03 14:33N 32°42' W 117°09'0 0.1
2016-Dec-03 13:33N 32°42' W 117°09'0 0.1
2016-Dec-03 12:33N 32°42' W 117°09'0 0.1
2016-Dec-03 11:33N 32°42' W 117°09'0 0.1
2016-Dec-03 10:33N 32°42' W 117°09'0 0.0
2016-Dec-03 09:33N 32°42' W 117°09'0 0.0
2016-Dec-03 08:33N 32°42' W 117°09'0 0.1
2016-Dec-03 07:33N 32°42' W 117°09'0 0.1
2016-Dec-03 06:33N 32°42' W 117°09'0 0.0
2016-Dec-03 05:33N 32°42' W 117°09'0 0.1
2016-Dec-03 04:33N 32°42' W 117°09'0 0.1
2016-Dec-03 03:33N 32°42' W 117°09'0 0.0
2016-Dec-03 02:33N 32°42' W 117°09'3 2.6
2016-Dec-03 01:15N 32°39' W 117°07'3 4.9
2016-Dec-03 00:33N 32°42' W 117°09'0 0.0
2016-Dec-02 23:33N 32°42' W 117°09'0 0.0
2016-Dec-02 22:33N 32°42' W 117°09'0 0.0
2016-Dec-02 21:33N 32°42' W 117°09'0 0.0
2016-Dec-02 20:33N 32°42' W 117°09'0 0.0
2016-Dec-02 19:33N 32°42' W 117°09'0 0.0
2016-Dec-02 18:33N 32°42' W 117°09'0 0.0
2016-Dec-02 17:33N 32°42' W 117°09'0 0.0
2016-Dec-02 16:31N 32°42' W 117°09'0 0.0
2016-Dec-02 15:32N 32°42' W 117°09'3 3.2
2016-Dec-02 14:29N 32°39' W 117°07'3 3.6
2016-Dec-02 13:33N 32°42' W 117°09'0 0.0
2016-Dec-02 12:33N 32°42' W 117°09'0 0.0
2016-Dec-02 11:33N 32°42' W 117°09'0 0.1
2016-Dec-02 10:33N 32°42' W 117°09'0 0.1
2016-Dec-02 09:33N 32°42' W 117°09'0 0.1
2016-Dec-02 08:33N 32°42' W 117°09'0 0.1
2016-Dec-02 07:33N 32°42' W 117°09'0 0.1
2016-Dec-02 06:33N 32°42' W 117°09'0 0.0
2016-Dec-02 05:33N 32°42' W 117°09'0 0.0
2016-Dec-02 04:33N 32°42' W 117°09'0 0.0
2016-Dec-02 03:33N 32°42' W 117°09'0 0.0
2016-Dec-02 02:32N 32°42' W 117°09'0 0.1
2016-Dec-02 01:33N 32°42' W 117°09'0 0.1
2016-Dec-02 00:33N 32°42' W 117°09'0 0.0
2016-Dec-01 23:33N 32°42' W 117°09'0 0.0
2016-Dec-01 22:33N 32°42' W 117°09'0 0.0
2016-Dec-01 21:31N 32°42' W 117°09'0 0.1
2016-Dec-01 20:32N 32°42' W 117°09'0 0.1
2016-Dec-01 19:33N 32°42' W 117°09'0 0.0
2016-Dec-01 18:33N 32°42' W 117°09'0 0.0
2016-Dec-01 17:33N 32°42' W 117°09'0 0.1
2016-Dec-01 16:33N 32°42' W 117°09'0 0.1
2016-Dec-01 15:33N 32°42' W 117°09'0 0.0
2016-Dec-01 14:33N 32°42' W 117°09'0 0.0
2016-Dec-01 13:33N 32°42' W 117°09'0 0.0
2016-Dec-01 12:33N 32°42' W 117°09'0 0.0
2016-Dec-01 11:33N 32°42' W 117°09'0 0.0
2016-Dec-01 10:33N 32°42' W 117°09'0 0.0
2016-Dec-01 09:33N 32°42' W 117°09'0 0.1
2016-Dec-01 08:33N 32°42' W 117°09'0 0.0
2016-Dec-01 07:33N 32°42' W 117°09'0 0.1
2016-Dec-01 06:33N 32°42' W 117°09'0 0.1
2016-Dec-01 05:33N 32°42' W 117°09'0 0.0
2016-Dec-01 04:33N 32°42' W 117°09'0 0.0
2016-Dec-01 03:33N 32°42' W 117°09'0 0.1
2016-Dec-01 02:33N 32°42' W 117°09'0 0.1
2016-Dec-01 01:33N 32°42' W 117°09'0 0.2
2016-Dec-01 00:33N 32°42' W 117°09'2 2.0
2016-Nov-30 23:33N 32°40' W 117°08'2 2.1
2016-Nov-30 22:33N 32°42' W 117°09'0 0.0
2016-Nov-30 21:33N 32°42' W 117°09'0 0.1
2016-Nov-30 20:33N 32°42' W 117°09'0 0.1
2016-Nov-30 19:33N 32°42' W 117°09'0 0.0
2016-Nov-30 18:33N 32°42' W 117°09'0 0.0
2016-Nov-30 17:33N 32°42' W 117°09'0 0.0
2016-Nov-30 16:33N 32°42' W 117°09'0 0.1
2016-Nov-30 15:33N 32°42' W 117°09'0 0.0
2016-Nov-30 14:33N 32°42' W 117°09'0 0.0
2016-Nov-30 13:33N 32°42' W 117°09'0 0.0
2016-Nov-30 12:33N 32°42' W 117°09'0 0.0
2016-Nov-30 11:33N 32°42' W 117°09'0 0.1
2016-Nov-30 10:33N 32°42' W 117°09'0 0.0
2016-Nov-30 09:33N 32°42' W 117°09'0 0.0
2016-Nov-30 08:33N 32°42' W 117°09'0 0.1
2016-Nov-30 07:33N 32°42' W 117°09'0 0.1
2016-Nov-30 06:33N 32°42' W 117°09'0 0.0
2016-Nov-30 05:33N 32°42' W 117°09'0 0.0
2016-Nov-30 04:33N 32°42' W 117°09'0 0.0
2016-Nov-30 03:33N 32°42' W 117°09'0 0.0
2016-Nov-30 02:32N 32°42' W 117°09'0 0.1
2016-Nov-30 01:33N 32°42' W 117°09'0 0.1
2016-Nov-30 00:33N 32°42' W 117°09'3 2.9
2016-Nov-29 23:34N 32°39' W 117°07'4 3.7
2016-Nov-29 22:33N 32°42' W 117°10'1 0.9
2016-Nov-29 21:33N 32°42' W 117°09'0 0.0
2016-Nov-29 20:31N 32°42' W 117°09'0 0.0
2016-Nov-29 19:13N 32°42' W 117°09'0 0.0
2016-Nov-29 18:33N 32°42' W 117°09'2 2.0
2016-Nov-29 17:32N 32°40' W 117°08'1 1.1
2016-Nov-29 16:33N 32°41' W 117°08'2 2.5
2016-Nov-29 15:33N 32°42' W 117°11'2 1.8
2016-Nov-29 14:33N 32°41' W 117°09'2 1.7
2016-Nov-29 13:34N 32°40' W 117°08'2 2.0
2016-Nov-29 12:32N 32°42' W 117°09'2 1.6
2016-Nov-29 11:33N 32°41' W 117°08'1 0.9
2016-Nov-29 10:33N 32°40' W 117°08'2 2.5
2016-Nov-29 09:33N 32°42' W 117°09'0 0.0
2016-Nov-29 08:33N 32°42' W 117°09'0 0.0
2016-Nov-29 07:33N 32°42' W 117°09'0 0.0
2016-Nov-29 06:33N 32°42' W 117°09'0 0.0
2016-Nov-29 05:33N 32°42' W 117°09'0 0.0
2016-Nov-29 04:33N 32°42' W 117°09'0 0.0
2016-Nov-29 03:33N 32°42' W 117°09'0 0.0
2016-Nov-29 02:33N 32°42' W 117°09'0 0.1
2016-Nov-29 01:33N 32°42' W 117°09'0 0.1
2016-Nov-29 00:33N 32°42' W 117°09'0 0.0
2016-Nov-28 23:33N 32°42' W 117°09'0 0.0
2016-Nov-28 22:33N 32°42' W 117°09'0 0.0
2016-Nov-28 21:33N 32°42' W 117°09'0 0.1
2016-Nov-28 20:33N 32°42' W 117°09'0 0.0
2016-Nov-28 19:33N 32°42' W 117°09'0 0.1
2016-Nov-28 18:33N 32°42' W 117°09'0 0.0
2016-Nov-28 17:33N 32°42' W 117°09'0 0.0
2016-Nov-28 16:33N 32°42' W 117°09'0 0.0
2016-Nov-28 15:33N 32°42' W 117°09'0 0.0
2016-Nov-28 14:33N 32°42' W 117°09'0 0.0
2016-Nov-28 13:33N 32°42' W 117°09'0 0.0
2016-Nov-28 12:33N 32°42' W 117°09'0 0.0
2016-Nov-28 11:33N 32°42' W 117°09'0 0.1
2016-Nov-28 10:33N 32°42' W 117°09'0 0.1
2016-Nov-28 09:33N 32°42' W 117°09'0 0.0
2016-Nov-28 08:33N 32°42' W 117°09'0 0.0
2016-Nov-28 07:33N 32°42' W 117°09'0 0.0
2016-Nov-28 06:32N 32°42' W 117°09'0 0.0
2016-Nov-28 05:33N 32°42' W 117°09'0 0.0
2016-Nov-28 04:33N 32°42' W 117°09'0 0.0
2016-Nov-28 03:33N 32°42' W 117°09'0 0.0
2016-Nov-28 02:33N 32°42' W 117°09'0 0.0
2016-Nov-28 01:33N 32°42' W 117°09'3 2.8
2016-Nov-28 00:33N 32°39' W 117°07'3 2.8
2016-Nov-27 23:33N 32°42' W 117°09'0 0.0
2016-Nov-27 22:33N 32°42' W 117°09'0 0.0
2016-Nov-27 21:33N 32°42' W 117°09'0 0.0
2016-Nov-27 20:33N 32°42' W 117°09'0 0.0
2016-Nov-27 19:33N 32°42' W 117°09'0 0.0
2016-Nov-27 18:33N 32°42' W 117°09'0 0.0
2016-Nov-27 17:33N 32°42' W 117°09'0 0.1
2016-Nov-27 16:33N 32°42' W 117°09'  
Track history (hours):
 
Tides and Currents Weather Stations Pressure Air Temp Water Temp Dewpoint Dewpoint Depression Visibility Wind Speed Wind Dir Waves Ship Positions

Scout

Owner: Crowley Marine Services, SEATTLE, WA. More information available from US FCC via Universal Licensing System and Coast Guard Vessel Documentation Center.

Last reported at 2016-Dec-07 15:34 UTC. Time now 2016-Dec-07 16:26 UTC.
Position N 32°42' W 117°09'.

; draft 5.6 m.

Type: Tug. MMSI: 366764730.

Date/timePositionNaut miles runAvg speedWind from/ knotsBaromVisibWave heightAir tempDewpointWater temp
2016-Dec-07 15:34N 32°42' W 117°09'0 0.0
2016-Dec-07 14:33N 32°42' W 117°09'0 0.0
2016-Dec-07 13:33N 32°42' W 117°09'0 0.0
2016-Dec-07 12:33N 32°42' W 117°09'0 0.0
2016-Dec-07 11:33N 32°42' W 117°09'0 0.1
2016-Dec-07 10:33N 32°42' W 117°09'0 0.1
2016-Dec-07 09:33N 32°42' W 117°09'0 0.0
2016-Dec-07 08:33N 32°42' W 117°09'0 0.0
2016-Dec-07 07:33N 32°42' W 117°09'0 0.0
2016-Dec-07 06:33N 32°42' W 117°09'0 0.0
2016-Dec-07 05:33N 32°42' W 117°09'0 0.0
2016-Dec-07 04:33N 32°42' W 117°09'0 0.0
2016-Dec-07 03:33N 32°42' W 117°09'0 0.0
2016-Dec-07 02:33N 32°42' W 117°09'0 0.0
2016-Dec-07 01:33N 32°42' W 117°09'3 2.6
2016-Dec-07 00:33N 32°39' W 117°07'3 2.6
2016-Dec-06 23:32N 32°42' W 117°09'0 0.0
2016-Dec-06 22:33N 32°42' W 117°09'0 0.1
2016-Dec-06 21:33N 32°42' W 117°09'0 0.1
2016-Dec-06 20:32N 32°42' W 117°09'0 0.0
2016-Dec-06 18:33N 32°42' W 117°09'0 0.1
2016-Dec-06 17:33N 32°42' W 117°09'3 2.5
2016-Dec-06 16:33N 32°43' W 117°12'0 0.0
2016-Dec-06 15:33N 32°43' W 117°12'2 2.5
2016-Dec-06 14:33N 32°42' W 117°09'0 0.1
2016-Dec-06 13:33N 32°42' W 117°09'3 2.1
2016-Dec-06 12:15N 32°39' W 117°07'3 4.0
2016-Dec-06 11:33N 32°42' W 117°09'0 0.0
2016-Dec-06 10:33N 32°42' W 117°09'0 0.0
2016-Dec-06 09:33N 32°42' W 117°09'0 0.1
2016-Dec-06 08:33N 32°42' W 117°09'0 0.1
2016-Dec-06 07:33N 32°42' W 117°09'0 0.0
2016-Dec-06 06:33N 32°42' W 117°09'0 0.0
2016-Dec-06 05:33N 32°42' W 117°09'0 0.0
2016-Dec-06 04:33N 32°42' W 117°09'0 0.0
2016-Dec-06 03:33N 32°42' W 117°09'0 0.0
2016-Dec-06 02:33N 32°42' W 117°09'1 0.6
2016-Dec-06 01:34N 32°41' W 117°09'1 0.6
2016-Dec-06 00:33N 32°42' W 117°09'0 0.0
2016-Dec-05 23:33N 32°42' W 117°09'0 0.0
2016-Dec-05 22:33N 32°42' W 117°09'0 0.0
2016-Dec-05 21:33N 32°42' W 117°09'0 0.4
2016-Dec-05 20:33N 32°42' W 117°10'0 0.4
2016-Dec-05 19:33N 32°42' W 117°09'0 0.0
2016-Dec-05 18:33N 32°42' W 117°09'0 0.0
2016-Dec-05 17:33N 32°42' W 117°09'0 0.1
2016-Dec-05 16:33N 32°42' W 117°09'0 0.0
2016-Dec-05 15:33N 32°42' W 117°09'0 0.0
2016-Dec-05 14:33N 32°42' W 117°09'0 0.0
2016-Dec-05 13:33N 32°42' W 117°09'0 0.0
2016-Dec-05 12:33N 32°42' W 117°09'0 0.0
2016-Dec-05 11:33N 32°42' W 117°09'0 0.0
2016-Dec-05 10:33N 32°42' W 117°09'0 0.0
2016-Dec-05 09:33N 32°42' W 117°09'0 0.0
2016-Dec-05 08:33N 32°42' W 117°09'0 0.0
2016-Dec-05 07:33N 32°42' W 117°09'0 0.1
2016-Dec-05 06:33N 32°42' W 117°09'0 0.0
2016-Dec-05 05:32N 32°42' W 117°09'0 0.0
2016-Dec-05 04:33N 32°42' W 117°09'0 0.0
2016-Dec-05 03:33N 32°42' W 117°09'0 0.0
2016-Dec-05 02:33N 32°42' W 117°09'0 0.0
2016-Dec-05 01:33N 32°42' W 117°09'0 0.0
2016-Dec-05 00:32N 32°42' W 117°09'0 0.0
2016-Dec-04 23:33N 32°42' W 117°09'0 0.0
2016-Dec-04 22:33N 32°42' W 117°09'2 1.6
2016-Dec-04 21:33N 32°41' W 117°08'1 1.3
2016-Dec-04 20:33N 32°39' W 117°07'3 2.8
2016-Dec-04 19:33N 32°42' W 117°09'0 0.0
2016-Dec-04 18:33N 32°42' W 117°09'0 0.0
2016-Dec-04 17:33N 32°42' W 117°09'0 0.1
2016-Dec-04 16:33N 32°42' W 117°09'0 0.0
2016-Dec-04 15:33N 32°42' W 117°09'3 2.4
2016-Dec-04 14:09N 32°39' W 117°07'3 4.5
2016-Dec-04 13:33N 32°41' W 117°09'1 1.1
2016-Dec-04 12:33N 32°42' W 117°10'0 0.4
2016-Dec-04 11:33N 32°42' W 117°09'0 0.1
2016-Dec-04 10:33N 32°42' W 117°09'0 0.1
2016-Dec-04 09:33N 32°42' W 117°09'0 0.1
2016-Dec-04 08:33N 32°42' W 117°09'0 0.1
2016-Dec-04 07:33N 32°42' W 117°09'0 0.0
2016-Dec-04 06:33N 32°42' W 117°09'0 0.0
2016-Dec-04 05:33N 32°42' W 117°09'0 0.0
2016-Dec-04 04:33N 32°42' W 117°09'0 0.0
2016-Dec-04 03:30N 32°42' W 117°09'0 0.0
2016-Dec-04 02:33N 32°42' W 117°09'0 0.0
2016-Dec-04 01:33N 32°42' W 117°09'0 0.0
2016-Dec-04 00:33N 32°42' W 117°09'0 0.1
2016-Dec-03 23:33N 32°42' W 117°09'0 0.1
2016-Dec-03 22:33N 32°42' W 117°09'0 0.0
2016-Dec-03 21:33N 32°42' W 117°09'0 0.0
2016-Dec-03 20:33N 32°42' W 117°09'0 0.0
2016-Dec-03 19:33N 32°42' W 117°09'0 0.0
2016-Dec-03 18:27N 32°42' W 117°09'0 0.0
2016-Dec-03 17:33N 32°42' W 117°09'0 0.0
2016-Dec-03 16:33N 32°42' W 117°09'0 0.0
2016-Dec-03 15:33N 32°42' W 117°09'0 0.0
2016-Dec-03 14:33N 32°42' W 117°09'0 0.1
2016-Dec-03 13:33N 32°42' W 117°09'0 0.1
2016-Dec-03 12:33N 32°42' W 117°09'0 0.1
2016-Dec-03 11:33N 32°42' W 117°09'0 0.1
2016-Dec-03 10:33N 32°42' W 117°09'0 0.0
2016-Dec-03 09:33N 32°42' W 117°09'0 0.0
2016-Dec-03 08:33N 32°42' W 117°09'0 0.1
2016-Dec-03 07:33N 32°42' W 117°09'0 0.1
2016-Dec-03 06:33N 32°42' W 117°09'0 0.0
2016-Dec-03 05:33N 32°42' W 117°09'0 0.1
2016-Dec-03 04:33N 32°42' W 117°09'0 0.1
2016-Dec-03 03:33N 32°42' W 117°09'0 0.0
2016-Dec-03 02:33N 32°42' W 117°09'3 2.6
2016-Dec-03 01:15N 32°39' W 117°07'3 4.9
2016-Dec-03 00:33N 32°42' W 117°09'0 0.0
2016-Dec-02 23:33N 32°42' W 117°09'0 0.0
2016-Dec-02 22:33N 32°42' W 117°09'0 0.0
2016-Dec-02 21:33N 32°42' W 117°09'0 0.0
2016-Dec-02 20:33N 32°42' W 117°09'0 0.0
2016-Dec-02 19:33N 32°42' W 117°09'0 0.0
2016-Dec-02 18:33N 32°42' W 117°09'0 0.0
2016-Dec-02 17:33N 32°42' W 117°09'0 0.0
2016-Dec-02 16:31N 32°42' W 117°09'0 0.0
2016-Dec-02 15:32N 32°42' W 117°09'3 3.2
2016-Dec-02 14:29N 32°39' W 117°07'3 3.6
2016-Dec-02 13:33N 32°42' W 117°09'0 0.0
2016-Dec-02 12:33N 32°42' W 117°09'0 0.0
2016-Dec-02 11:33N 32°42' W 117°09'0 0.1
2016-Dec-02 10:33N 32°42' W 117°09'0 0.1
2016-Dec-02 09:33N 32°42' W 117°09'0 0.1
2016-Dec-02 08:33N 32°42' W 117°09'0 0.1
2016-Dec-02 07:33N 32°42' W 117°09'0 0.1
2016-Dec-02 06:33N 32°42' W 117°09'0 0.0
2016-Dec-02 05:33N 32°42' W 117°09'0 0.0
2016-Dec-02 04:33N 32°42' W 117°09'0 0.0
2016-Dec-02 03:33N 32°42' W 117°09'0 0.0
2016-Dec-02 02:32N 32°42' W 117°09'0 0.1
2016-Dec-02 01:33N 32°42' W 117°09'0 0.1
2016-Dec-02 00:33N 32°42' W 117°09'0 0.0
2016-Dec-01 23:33N 32°42' W 117°09'0 0.0
2016-Dec-01 22:33N 32°42' W 117°09'0 0.0
2016-Dec-01 21:31N 32°42' W 117°09'0 0.1
2016-Dec-01 20:32N 32°42' W 117°09'0 0.1
2016-Dec-01 19:33N 32°42' W 117°09'0 0.0
2016-Dec-01 18:33N 32°42' W 117°09'0 0.0
2016-Dec-01 17:33N 32°42' W 117°09'0 0.1
2016-Dec-01 16:33N 32°42' W 117°09'0 0.1
2016-Dec-01 15:33N 32°42' W 117°09'0 0.0
2016-Dec-01 14:33N 32°42' W 117°09'0 0.0
2016-Dec-01 13:33N 32°42' W 117°09'0 0.0
2016-Dec-01 12:33N 32°42' W 117°09'0 0.0
2016-Dec-01 11:33N 32°42' W 117°09'0 0.0
2016-Dec-01 10:33N 32°42' W 117°09'0 0.0
2016-Dec-01 09:33N 32°42' W 117°09'0 0.1
2016-Dec-01 08:33N 32°42' W 117°09'0 0.0
2016-Dec-01 07:33N 32°42' W 117°09'0 0.1
2016-Dec-01 06:33N 32°42' W 117°09'0 0.1
2016-Dec-01 05:33N 32°42' W 117°09'0 0.0
2016-Dec-01 04:33N 32°42' W 117°09'0 0.0
2016-Dec-01 03:33N 32°42' W 117°09'0 0.1
2016-Dec-01 02:33N 32°42' W 117°09'0 0.1
2016-Dec-01 01:33N 32°42' W 117°09'0 0.2
2016-Dec-01 00:33N 32°42' W 117°09'2 2.0
2016-Nov-30 23:33N 32°40' W 117°08'2 2.1
2016-Nov-30 22:33N 32°42' W 117°09'0 0.0
2016-Nov-30 21:33N 32°42' W 117°09'0 0.1
2016-Nov-30 20:33N 32°42' W 117°09'0 0.1
2016-Nov-30 19:33N 32°42' W 117°09'0 0.0
2016-Nov-30 18:33N 32°42' W 117°09'0 0.0
2016-Nov-30 17:33N 32°42' W 117°09'0 0.0
2016-Nov-30 16:33N 32°42' W 117°09'0 0.1
2016-Nov-30 15:33N 32°42' W 117°09'0 0.0
2016-Nov-30 14:33N 32°42' W 117°09'0 0.0
2016-Nov-30 13:33N 32°42' W 117°09'0 0.0
2016-Nov-30 12:33N 32°42' W 117°09'0 0.0
2016-Nov-30 11:33N 32°42' W 117°09'0 0.1
2016-Nov-30 10:33N 32°42' W 117°09'0 0.0
2016-Nov-30 09:33N 32°42' W 117°09'0 0.0
2016-Nov-30 08:33N 32°42' W 117°09'0 0.1
2016-Nov-30 07:33N 32°42' W 117°09'0 0.1
2016-Nov-30 06:33N 32°42' W 117°09'0 0.0
2016-Nov-30 05:33N 32°42' W 117°09'0 0.0
2016-Nov-30 04:33N 32°42' W 117°09'0 0.0
2016-Nov-30 03:33N 32°42' W 117°09'0 0.0
2016-Nov-30 02:32N 32°42' W 117°09'0 0.1
2016-Nov-30 01:33N 32°42' W 117°09'0 0.1
2016-Nov-30 00:33N 32°42' W 117°09'3 2.9
2016-Nov-29 23:34N 32°39' W 117°07'4 3.7
2016-Nov-29 22:33N 32°42' W 117°10'1 0.9
2016-Nov-29 21:33N 32°42' W 117°09'0 0.0
2016-Nov-29 20:31N 32°42' W 117°09'0 0.0
2016-Nov-29 19:13N 32°42' W 117°09'0 0.0
2016-Nov-29 18:33N 32°42' W 117°09'2 2.0
2016-Nov-29 17:32N 32°40' W 117°08'1 1.1
2016-Nov-29 16:33N 32°41' W 117°08'2 2.5
2016-Nov-29 15:33N 32°42' W 117°11'2 1.8
2016-Nov-29 14:33N 32°41' W 117°09'2 1.7
2016-Nov-29 13:34N 32°40' W 117°08'2 2.0
2016-Nov-29 12:32N 32°42' W 117°09'2 1.6
2016-Nov-29 11:33N 32°41' W 117°08'1 0.9
2016-Nov-29 10:33N 32°40' W 117°08'2 2.5
2016-Nov-29 09:33N 32°42' W 117°09'0 0.0
2016-Nov-29 08:33N 32°42' W 117°09'0 0.0
2016-Nov-29 07:33N 32°42' W 117°09'0 0.0
2016-Nov-29 06:33N 32°42' W 117°09'0 0.0
2016-Nov-29 05:33N 32°42' W 117°09'0 0.0
2016-Nov-29 04:33N 32°42' W 117°09'0 0.0
2016-Nov-29 03:33N 32°42' W 117°09'0 0.0
2016-Nov-29 02:33N 32°42' W 117°09'0 0.1
2016-Nov-29 01:33N 32°42' W 117°09'0 0.1
2016-Nov-29 00:33N 32°42' W 117°09'0 0.0
2016-Nov-28 23:33N 32°42' W 117°09'0 0.0
2016-Nov-28 22:33N 32°42' W 117°09'0 0.0
2016-Nov-28 21:33N 32°42' W 117°09'0 0.1
2016-Nov-28 20:33N 32°42' W 117°09'0 0.0
2016-Nov-28 19:33N 32°42' W 117°09'0 0.1
2016-Nov-28 18:33N 32°42' W 117°09'0 0.0
2016-Nov-28 17:33N 32°42' W 117°09'0 0.0
2016-Nov-28 16:33N 32°42' W 117°09'0 0.0
2016-Nov-28 15:33N 32°42' W 117°09'0 0.0
2016-Nov-28 14:33N 32°42' W 117°09'0 0.0
2016-Nov-28 13:33N 32°42' W 117°09'0 0.0
2016-Nov-28 12:33N 32°42' W 117°09'0 0.0
2016-Nov-28 11:33N 32°42' W 117°09'0 0.1
2016-Nov-28 10:33N 32°42' W 117°09'0 0.1
2016-Nov-28 09:33N 32°42' W 117°09'0 0.0
2016-Nov-28 08:33N 32°42' W 117°09'0 0.0
2016-Nov-28 07:33N 32°42' W 117°09'0 0.0
2016-Nov-28 06:32N 32°42' W 117°09'0 0.0
2016-Nov-28 05:33N 32°42' W 117°09'0 0.0
2016-Nov-28 04:33N 32°42' W 117°09'0 0.0
2016-Nov-28 03:33N 32°42' W 117°09'0 0.0
2016-Nov-28 02:33N 32°42' W 117°09'0 0.0
2016-Nov-28 01:33N 32°42' W 117°09'3 2.8
2016-Nov-28 00:33N 32°39' W 117°07'3 2.8
2016-Nov-27 23:33N 32°42' W 117°09'0 0.0
2016-Nov-27 22:33N 32°42' W 117°09'0 0.0
2016-Nov-27 21:33N 32°42' W 117°09'0 0.0
2016-Nov-27 20:33N 32°42' W 117°09'0 0.0
2016-Nov-27 19:33N 32°42' W 117°09'0 0.0
2016-Nov-27 18:33N 32°42' W 117°09'0 0.0
2016-Nov-27 17:33N 32°42' W 117°09'0 0.1
2016-Nov-27 16:33N 32°42' W 117°09'  

Dump ship's entire track history